sensor_id;sensor_type;location;lat;lon;timestamp;pressure;altitude;pressure_sealevel;temperature;humidity
22743;BME280;11538;48.884;8.696;2023-02-19T00:02:18;99355.53;;;9.40;100.00
22743;BME280;11538;48.884;8.696;2023-02-19T00:04:44;99343.91;;;9.39;100.00
22743;BME280;11538;48.884;8.696;2023-02-19T00:07:11;99349.34;;;9.39;100.00
22743;BME280;11538;48.884;8.696;2023-02-19T00:09:38;99340.41;;;9.33;100.00
22743;BME280;11538;48.884;8.696;2023-02-19T00:12:05;99340.72;;;9.32;100.00
22743;BME280;11538;48.884;8.696;2023-02-19T00:14:32;99337.16;;;9.31;100.00
22743;BME280;11538;48.884;8.696;2023-02-19T00:16:58;99332.56;;;9.27;100.00
22743;BME280;11538;48.884;8.696;2023-02-19T00:19:26;99334.22;;;9.28;100.00
22743;BME280;11538;48.884;8.696;2023-02-19T00:21:53;99339.09;;;9.31;100.00
22743;BME280;11538;48.884;8.696;2023-02-19T00:24:21;99338.56;;;9.29;100.00
22743;BME280;11538;48.884;8.696;2023-02-19T00:26:53;99334.75;;;9.30;100.00
22743;BME280;11538;48.884;8.696;2023-02-19T00:29:24;99336.38;;;9.31;100.00
22743;BME280;11538;48.884;8.696;2023-02-19T00:31:50;99332.59;;;9.32;100.00
22743;BME280;11538;48.884;8.696;2023-02-19T00:34:17;99333.38;;;9.32;100.00
22743;BME280;11538;48.884;8.696;2023-02-19T00:36:44;99337.47;;;9.30;100.00
22743;BME280;11538;48.884;8.696;2023-02-19T00:39:16;99336.38;;;9.31;100.00
22743;BME280;11538;48.884;8.696;2023-02-19T00:41:44;99329.88;;;9.32;100.00
22743;BME280;11538;48.884;8.696;2023-02-19T00:44:13;99325.03;;;9.29;100.00
22743;BME280;11538;48.884;8.696;2023-02-19T00:46:44;99318.00;;;9.28;100.00
22743;BME280;11538;48.884;8.696;2023-02-19T00:49:19;99311.75;;;9.27;100.00
22743;BME280;11538;48.884;8.696;2023-02-19T00:51:47;99310.94;;;9.21;100.00
22743;BME280;11538;48.884;8.696;2023-02-19T00:54:15;99308.78;;;9.18;100.00
22743;BME280;11538;48.884;8.696;2023-02-19T00:56:43;99305.00;;;9.19;100.00
22743;BME280;11538;48.884;8.696;2023-02-19T00:59:10;99302.03;;;9.21;100.00
22743;BME280;11538;48.884;8.696;2023-02-19T01:01:37;99298.47;;;9.26;100.00
22743;BME280;11538;48.884;8.696;2023-02-19T01:04:04;99303.34;;;9.24;100.00
22743;BME280;11538;48.884;8.696;2023-02-19T01:06:32;99294.16;;;9.19;100.00
22743;BME280;11538;48.884;8.696;2023-02-19T01:09:00;99298.78;;;9.19;100.00
22743;BME280;11538;48.884;8.696;2023-02-19T01:11:28;99294.69;;;9.21;100.00
22743;BME280;11538;48.884;8.696;2023-02-19T01:13:59;99296.31;;;9.22;100.00
22743;BME280;11538;48.884;8.696;2023-02-19T01:16:28;99285.50;;;9.22;100.00
22743;BME280;11538;48.884;8.696;2023-02-19T01:18:57;99292.81;;;9.22;100.00
22743;BME280;11538;48.884;8.696;2023-02-19T01:21:26;99298.78;;;9.24;100.00
22743;BME280;11538;48.884;8.696;2023-02-19T01:23:55;99293.34;;;9.24;100.00
22743;BME280;11538;48.884;8.696;2023-02-19T01:26:26;99300.91;;;9.27;100.00
22743;BME280;11538;48.884;8.696;2023-02-19T01:28:58;99284.13;;;9.30;100.00
22743;BME280;11538;48.884;8.696;2023-02-19T01:31:27;99290.06;;;9.32;100.00
22743;BME280;11538;48.884;8.696;2023-02-19T01:34:03;99289.78;;;9.34;100.00
22743;BME280;11538;48.884;8.696;2023-02-19T01:36:32;99297.91;;;9.34;100.00
22743;BME280;11538;48.884;8.696;2023-02-19T01:39:02;99294.38;;;9.33;100.00
22743;BME280;11538;48.884;8.696;2023-02-19T01:41:35;99291.69;;;9.33;100.00
22743;BME280;11538;48.884;8.696;2023-02-19T01:44:05;99311.16;;;9.35;100.00
22743;BME280;11538;48.884;8.696;2023-02-19T01:46:42;99306.31;;;9.32;100.00
22743;BME280;11538;48.884;8.696;2023-02-19T01:51:55;99296.31;;;9.33;100.00
22743;BME280;11538;48.884;8.696;2023-02-19T01:54:27;99312.25;;;9.34;100.00
22743;BME280;11538;48.884;8.696;2023-02-19T01:56:57;99315.25;;;9.33;100.00
22743;BME280;11538;48.884;8.696;2023-02-19T01:59:25;99302.50;;;9.33;100.00
22743;BME280;11538;48.884;8.696;2023-02-19T02:01:52;99306.06;;;9.29;100.00
22743;BME280;11538;48.884;8.696;2023-02-19T02:04:19;99303.06;;;9.30;100.00
22743;BME280;11538;48.884;8.696;2023-02-19T02:06:51;99301.22;;;9.20;100.00
22743;BME280;11538;48.884;8.696;2023-02-19T02:09:20;99292.28;;;9.20;100.00
22743;BME280;11538;48.884;8.696;2023-02-19T02:12:06;99290.38;;;9.20;100.00
22743;BME280;11538;48.884;8.696;2023-02-19T02:14:36;99276.84;;;9.20;100.00
22743;BME280;11538;48.884;8.696;2023-02-19T02:17:25;99272.81;;;9.18;100.00
22743;BME280;11538;48.884;8.696;2023-02-19T02:22:51;99269.25;;;9.22;100.00
22743;BME280;11538;48.884;8.696;2023-02-19T02:31:34;99261.16;;;9.17;100.00
22743;BME280;11538;48.884;8.696;2023-02-19T02:34:24;99263.91;;;9.12;100.00
22743;BME280;11538;48.884;8.696;2023-02-19T02:36:55;99256.31;;;9.14;100.00
22743;BME280;11538;48.884;8.696;2023-02-19T02:39:26;99257.94;;;9.15;100.00
22743;BME280;11538;48.884;8.696;2023-02-19T02:41:58;99263.34;;;9.15;100.00
22743;BME280;11538;48.884;8.696;2023-02-19T02:44:44;99262.81;;;9.13;100.00
22743;BME280;11538;48.884;8.696;2023-02-19T02:47:36;99255.22;;;9.15;100.00
22743;BME280;11538;48.884;8.696;2023-02-19T02:50:59;99250.09;;;9.14;100.00
22743;BME280;11538;48.884;8.696;2023-02-19T02:53:07;99250.91;;;9.09;100.00
22743;BME280;11538;48.884;8.696;2023-02-19T02:55:56;99253.06;;;9.12;100.00
22743;BME280;11538;48.884;8.696;2023-02-19T02:58:27;99248.22;;;9.09;100.00
22743;BME280;11538;48.884;8.696;2023-02-19T03:01:11;99245.47;;;9.14;100.00
22743;BME280;11538;48.884;8.696;2023-02-19T03:04:08;99247.06;;;9.20;100.00
22743;BME280;11538;48.884;8.696;2023-02-19T03:06:40;99255.19;;;9.20;100.00
22743;BME280;11538;48.884;8.696;2023-02-19T03:09:27;99247.63;;;9.17;100.00
22743;BME280;11538;48.884;8.696;2023-02-19T03:12:13;99237.34;;;9.14;100.00
22743;BME280;11538;48.884;8.696;2023-02-19T03:15:06;99236.84;;;9.12;100.00
22743;BME280;11538;48.884;8.696;2023-02-19T03:18:01;99229.56;;;9.07;100.00
22743;BME280;11538;48.884;8.696;2023-02-19T03:20:52;99229.56;;;9.07;100.00
22743;BME280;11538;48.884;8.696;2023-02-19T03:23:28;99230.38;;;9.03;100.00
22743;BME280;11538;48.884;8.696;2023-02-19T03:26:19;99221.72;;;9.06;100.00
22743;BME280;11538;48.884;8.696;2023-02-19T03:28:50;99231.19;;;9.09;100.00
22743;BME280;11538;48.884;8.696;2023-02-19T03:31:38;99228.75;;;9.07;100.00
22743;BME280;11538;48.884;8.696;2023-02-19T03:34:12;99229.56;;;9.07;100.00
22743;BME280;11538;48.884;8.696;2023-02-19T03:36:54;99239.31;;;9.09;100.00
22743;BME280;11538;48.884;8.696;2023-02-19T03:39:29;99239.56;;;9.07;100.00
22743;BME280;11538;48.884;8.696;2023-02-19T03:42:09;99240.13;;;9.04;100.00
22743;BME280;11538;48.884;8.696;2023-02-19T03:47:29;99235.53;;;9.04;100.00
22743;BME280;11538;48.884;8.696;2023-02-19T03:50:14;99245.81;;;9.07;100.00
22743;BME280;11538;48.884;8.696;2023-02-19T03:53:31;99233.34;;;9.12;100.00
22743;BME280;11538;48.884;8.696;2023-02-19T03:56:07;99247.94;;;9.11;100.00
22743;BME280;11538;48.884;8.696;2023-02-19T03:59:11;99251.75;;;9.10;100.00
22743;BME280;11538;48.884;8.696;2023-02-19T04:01:47;99259.59;;;9.06;100.00
22743;BME280;11538;48.884;8.696;2023-02-19T04:04:36;99269.06;;;9.09;100.00
22743;BME280;11538;48.884;8.696;2023-02-19T04:07:05;99275.03;;;9.05;100.00
22743;BME280;11538;48.884;8.696;2023-02-19T04:09:37;99276.13;;;9.04;100.00
22743;BME280;11538;48.884;8.696;2023-02-19T04:12:13;99269.88;;;9.04;100.00
22743;BME280;11538;48.884;8.696;2023-02-19T04:14:53;99277.47;;;9.02;100.00
22743;BME280;11538;48.884;8.696;2023-02-19T04:17:31;99270.72;;;8.99;100.00
22743;BME280;11538;48.884;8.696;2023-02-19T04:20:02;99285.06;;;8.95;100.00
22743;BME280;11538;48.884;8.696;2023-02-19T04:22:31;99271.56;;;8.89;100.00
22743;BME280;11538;48.884;8.696;2023-02-19T04:24:59;99279.16;;;8.87;100.00
22743;BME280;11538;48.884;8.696;2023-02-19T04:27:26;99288.63;;;8.90;100.00
22743;BME280;11538;48.884;8.696;2023-02-19T04:29:53;99293.50;;;8.88;100.00
22743;BME280;11538;48.884;8.696;2023-02-19T04:32:20;99290.81;;;8.88;100.00
22743;BME280;11538;48.884;8.696;2023-02-19T04:34:46;99290.25;;;8.86;100.00
22743;BME280;11538;48.884;8.696;2023-02-19T04:37:13;99288.34;;;8.91;100.00
22743;BME280;11538;48.884;8.696;2023-02-19T04:39:40;99293.75;;;8.86;100.00
22743;BME280;11538;48.884;8.696;2023-02-19T04:42:09;99300.78;;;8.87;100.00
22743;BME280;11538;48.884;8.696;2023-02-19T04:44:36;99301.34;;;8.84;100.00
22743;BME280;11538;48.884;8.696;2023-02-19T04:47:03;99305.69;;;8.85;100.00
22743;BME280;11538;48.884;8.696;2023-02-19T04:49:30;99296.22;;;8.88;100.00
22743;BME280;11538;48.884;8.696;2023-02-19T04:51:57;99304.59;;;8.86;100.00
22743;BME280;11538;48.884;8.696;2023-02-19T04:54:24;99305.69;;;8.80;100.00
22743;BME280;11538;48.884;8.696;2023-02-19T04:56:51;99310.84;;;8.82;100.00
22743;BME280;11538;48.884;8.696;2023-02-19T04:59:18;99301.91;;;8.81;100.00
22743;BME280;11538;48.884;8.696;2023-02-19T05:01:45;99307.31;;;8.81;100.00
22743;BME280;11538;48.884;8.696;2023-02-19T05:04:12;99309.75;;;8.83;100.00
22743;BME280;11538;48.884;8.696;2023-02-19T05:06:38;99311.91;;;8.81;100.00
22743;BME280;11538;48.884;8.696;2023-02-19T05:09:05;99317.88;;;8.83;100.00
22743;BME280;11538;48.884;8.696;2023-02-19T05:11:32;99322.22;;;8.78;100.00
22743;BME280;11538;48.884;8.696;2023-02-19T05:13:59;99310.31;;;8.80;100.00
22743;BME280;11538;48.884;8.696;2023-02-19T05:16:26;99309.22;;;8.81;100.00
22743;BME280;11538;48.884;8.696;2023-02-19T05:18:53;99300.28;;;8.80;100.00
22743;BME280;11538;48.884;8.696;2023-02-19T05:21:20;99295.69;;;8.81;100.00
22743;BME280;11538;48.884;8.696;2023-02-19T05:23:47;99303.53;;;8.82;100.00
22743;BME280;11538;48.884;8.696;2023-02-19T05:26:20;99290.53;;;8.79;100.00
22743;BME280;11538;48.884;8.696;2023-02-19T05:28:51;99300.28;;;8.80;100.00
22743;BME280;11538;48.884;8.696;2023-02-19T05:31:19;99305.16;;;8.78;100.00
22743;BME280;11538;48.884;8.696;2023-02-19T05:33:47;99307.06;;;8.77;100.00
22743;BME280;11538;48.884;8.696;2023-02-19T05:36:18;99312.47;;;8.77;100.00
22743;BME280;11538;48.884;8.696;2023-02-19T05:38:45;99312.72;;;8.81;100.00
22743;BME280;11538;48.884;8.696;2023-02-19T05:41:22;99322.72;;;8.86;100.00
22743;BME280;11538;48.884;8.696;2023-02-19T05:43:50;99320.56;;;8.83;100.00
22743;BME280;11538;48.884;8.696;2023-02-19T05:46:22;99318.94;;;8.82;100.00
22743;BME280;11538;48.884;8.696;2023-02-19T05:48:51;99321.66;;;8.82;100.00
22743;BME280;11538;48.884;8.696;2023-02-19T05:51:22;99329.50;;;8.78;100.00
22743;BME280;11538;48.884;8.696;2023-02-19T05:53:50;99320.84;;;8.81;100.00
22743;BME280;11538;48.884;8.696;2023-02-19T05:58:57;99306.50;;;8.86;100.00
22743;BME280;11538;48.884;8.696;2023-02-19T06:01:27;99305.97;;;8.84;100.00
22743;BME280;11538;48.884;8.696;2023-02-19T06:03:54;99316.78;;;8.78;100.00
22743;BME280;11538;48.884;8.696;2023-02-19T06:06:24;99323.00;;;8.79;100.00
22743;BME280;11538;48.884;8.696;2023-02-19T06:08:52;99307.84;;;8.83;100.00
22743;BME280;11538;48.884;8.696;2023-02-19T06:11:20;99309.47;;;8.84;100.00
22743;BME280;11538;48.884;8.696;2023-02-19T06:13:47;99325.16;;;8.87;100.00
22743;BME280;11538;48.884;8.696;2023-02-19T06:16:16;99325.44;;;8.86;100.00
22743;BME280;11538;48.884;8.696;2023-02-19T06:18:44;99322.72;;;8.86;100.00
22743;BME280;11538;48.884;8.696;2023-02-19T06:21:12;99330.03;;;8.85;100.00
22743;BME280;11538;48.884;8.696;2023-02-19T06:23:40;99334.91;;;8.83;100.00
22743;BME280;11538;48.884;8.696;2023-02-19T06:28:36;99341.69;;;8.81;100.00
22743;BME280;11538;48.884;8.696;2023-02-19T06:31:05;99344.09;;;8.82;100.00
22743;BME280;11538;48.884;8.696;2023-02-19T06:33:32;99362.50;;;8.80;100.00
22743;BME280;11538;48.884;8.696;2023-02-19T06:36:02;99364.66;;;8.83;100.00
22743;BME280;11538;48.884;8.696;2023-02-19T06:38:30;99357.38;;;8.84;100.00
22743;BME280;11538;48.884;8.696;2023-02-19T06:41:05;99369.25;;;8.83;100.00
22743;BME280;11538;48.884;8.696;2023-02-19T06:43:33;99373.84;;;8.82;100.00
22743;BME280;11538;48.884;8.696;2023-02-19T06:46:03;99377.38;;;8.83;100.00
22743;BME280;11538;48.884;8.696;2023-02-19T06:48:31;99384.13;;;8.85;100.00
22743;BME280;11538;48.884;8.696;2023-02-19T06:50:58;99391.69;;;8.83;100.00
22743;BME280;11538;48.884;8.696;2023-02-19T06:53:25;99401.44;;;8.84;100.00
22743;BME280;11538;48.884;8.696;2023-02-19T06:56:04;99399.81;;;8.83;100.00
22743;BME280;11538;48.884;8.696;2023-02-19T06:58:32;99393.63;;;8.83;100.00
22743;BME280;11538;48.884;8.696;2023-02-19T07:00:59;99402.81;;;8.87;100.00
22743;BME280;11538;48.884;8.696;2023-02-19T07:03:27;99408.47;;;8.90;100.00
22743;BME280;11538;48.884;8.696;2023-02-19T07:05:54;99416.31;;;8.92;100.00
22743;BME280;11538;48.884;8.696;2023-02-19T07:08:21;99415.25;;;8.93;100.00
22743;BME280;11538;48.884;8.696;2023-02-19T07:10:56;99424.97;;;8.94;100.00
22743;BME280;11538;48.884;8.696;2023-02-19T07:13:25;99425.50;;;8.96;100.00
22743;BME280;11538;48.884;8.696;2023-02-19T07:16:05;99414.94;;;8.95;100.00
22743;BME280;11538;48.884;8.696;2023-02-19T07:18:38;99416.03;;;8.93;100.00
22743;BME280;11538;48.884;8.696;2023-02-19T07:21:12;99404.69;;;8.91;100.00
22743;BME280;11538;48.884;8.696;2023-02-19T07:23:41;99407.38;;;8.97;100.00
22743;BME280;11538;48.884;8.696;2023-02-19T07:26:13;99426.31;;;9.02;100.00
22743;BME280;11538;48.884;8.696;2023-02-19T07:28:42;99425.22;;;9.08;100.00
22743;BME280;11538;48.884;8.696;2023-02-19T07:31:10;99427.09;;;9.13;100.00
22743;BME280;11538;48.884;8.696;2023-02-19T07:33:38;99420.88;;;9.12;100.00
22743;BME280;11538;48.884;8.696;2023-02-19T07:36:08;99423.56;;;9.17;100.00
22743;BME280;11538;48.884;8.696;2023-02-19T07:38:35;99423.84;;;9.21;100.00
22743;BME280;11538;48.884;8.696;2023-02-19T07:41:05;99434.13;;;9.24;100.00
22743;BME280;11538;48.884;8.696;2023-02-19T07:43:36;99434.38;;;9.28;100.00
22743;BME280;11538;48.884;8.696;2023-02-19T07:46:12;99438.44;;;9.30;100.00
22743;BME280;11538;48.884;8.696;2023-02-19T07:48:41;99438.16;;;9.32;100.00
22743;BME280;11538;48.884;8.696;2023-02-19T07:51:15;99439.78;;;9.33;100.00
22743;BME280;11538;48.884;8.696;2023-02-19T07:53:46;99436.78;;;9.34;100.00
22743;BME280;11538;48.884;8.696;2023-02-19T07:56:13;99443.81;;;9.41;100.00
22743;BME280;11538;48.884;8.696;2023-02-19T07:58:41;99445.16;;;9.43;100.00
22743;BME280;11538;48.884;8.696;2023-02-19T08:01:16;99450.31;;;9.45;100.00
22743;BME280;11538;48.884;8.696;2023-02-19T08:03:44;99460.56;;;9.48;100.00
22743;BME280;11538;48.884;8.696;2023-02-19T08:06:11;99454.59;;;9.51;100.00
22743;BME280;11538;48.884;8.696;2023-02-19T08:08:39;99465.72;;;9.49;100.00
22743;BME280;11538;48.884;8.696;2023-02-19T08:11:06;99458.69;;;9.54;100.00
22743;BME280;11538;48.884;8.696;2023-02-19T08:13:53;99454.88;;;9.55;100.00
22743;BME280;11538;48.884;8.696;2023-02-19T08:16:20;99467.59;;;9.54;100.00
22743;BME280;11538;48.884;8.696;2023-02-19T08:19:06;99467.63;;;9.49;100.00
22743;BME280;11538;48.884;8.696;2023-02-19T08:21:33;99473.56;;;9.51;100.00
22743;BME280;11538;48.884;8.696;2023-02-19T08:24:00;99480.06;;;9.50;100.00
22743;BME280;11538;48.884;8.696;2023-02-19T08:26:31;99490.09;;;9.49;100.00
22743;BME280;11538;48.884;8.696;2023-02-19T08:28:58;99494.69;;;9.49;100.00
22743;BME280;11538;48.884;8.696;2023-02-19T08:31:26;99515.03;;;9.41;100.00
22743;BME280;11538;48.884;8.696;2023-02-19T08:33:57;99513.13;;;9.42;100.00
22743;BME280;11538;48.884;8.696;2023-02-19T08:36:24;99505.56;;;9.39;100.00
22743;BME280;11538;48.884;8.696;2023-02-19T08:38:51;99499.34;;;9.33;100.00
22743;BME280;11538;48.884;8.696;2023-02-19T08:41:24;99511.50;;;9.35;100.00
22743;BME280;11538;48.884;8.696;2023-02-19T08:43:51;99505.28;;;9.40;100.00
22743;BME280;11538;48.884;8.696;2023-02-19T08:46:18;99505.28;;;9.45;100.00
22743;BME280;11538;48.884;8.696;2023-02-19T08:48:45;99516.66;;;9.42;100.00
22743;BME280;11538;48.884;8.696;2023-02-19T08:51:12;99518.28;;;9.43;100.00
22743;BME280;11538;48.884;8.696;2023-02-19T08:53:40;99496.06;;;9.46;100.00
22743;BME280;11538;48.884;8.696;2023-02-19T08:56:14;99494.44;;;9.50;100.00
22743;BME280;11538;48.884;8.696;2023-02-19T08:58:42;99507.44;;;9.54;100.00
22743;BME280;11538;48.884;8.696;2023-02-19T09:01:13;99484.69;;;9.55;100.00
22743;BME280;11538;48.884;8.696;2023-02-19T09:03:42;99490.59;;;9.62;100.00
22743;BME280;11538;48.884;8.696;2023-02-19T09:06:18;99495.97;;;9.77;100.00
22743;BME280;11538;48.884;8.696;2023-02-19T09:08:49;99502.69;;;9.85;100.00
22743;BME280;11538;48.884;8.696;2023-02-19T09:11:16;99516.00;;;9.87;100.00
22743;BME280;11538;48.884;8.696;2023-02-19T09:13:43;99520.84;;;9.90;100.00
22743;BME280;11538;48.884;8.696;2023-02-19T09:16:11;99524.09;;;9.92;100.00
22743;BME280;11538;48.884;8.696;2023-02-19T09:18:38;99524.91;;;9.98;100.00
22743;BME280;11538;48.884;8.696;2023-02-19T09:21:05;99523.28;;;9.91;100.00
22743;BME280;11538;48.884;8.696;2023-02-19T09:23:35;99525.19;;;9.86;100.00
22743;BME280;11538;48.884;8.696;2023-02-19T09:26:05;99524.66;;;9.84;100.00
22743;BME280;11538;48.884;8.696;2023-02-19T09:28:37;99524.91;;;9.98;100.00
22743;BME280;11538;48.884;8.696;2023-02-19T09:31:13;99538.69;;;10.01;100.00
22743;BME280;11538;48.884;8.696;2023-02-19T09:33:47;99534.34;;;10.05;100.00
22743;BME280;11538;48.884;8.696;2023-02-19T09:36:15;99543.28;;;10.06;100.00
22743;BME280;11538;48.884;8.696;2023-02-19T09:38:42;99554.69;;;10.08;100.00
22743;BME280;11538;48.884;8.696;2023-02-19T09:41:30;99556.34;;;9.99;100.00
22743;BME280;11538;48.884;8.696;2023-02-19T09:44:01;99567.44;;;9.97;100.00
22743;BME280;11538;48.884;8.696;2023-02-19T09:46:43;99561.75;;;9.99;100.00
22743;BME280;11538;48.884;8.696;2023-02-19T09:49:21;99569.88;;;9.99;100.00
22743;BME280;11538;48.884;8.696;2023-02-19T09:51:57;99569.34;;;9.97;100.00
22743;BME280;11538;48.884;8.696;2023-02-19T09:54:29;99576.94;;;10.00;100.00
22743;BME280;11538;48.884;8.696;2023-02-19T09:57:00;99585.63;;;9.97;100.00
22743;BME280;11538;48.884;8.696;2023-02-19T09:59:37;99583.69;;;9.97;100.00
22743;BME280;11538;48.884;8.696;2023-02-19T10:02:21;99586.66;;;10.06;100.00
22743;BME280;11538;48.884;8.696;2023-02-19T10:04:50;99584.47;;;10.13;100.00
22743;BME280;11538;48.884;8.696;2023-02-19T10:07:22;99576.88;;;10.15;100.00
22743;BME280;11538;48.884;8.696;2023-02-19T10:10:18;99572.25;;;10.16;100.00
22743;BME280;11538;48.884;8.696;2023-02-19T10:12:53;99578.75;;;10.20;100.00
22743;BME280;11538;48.884;8.696;2023-02-19T10:18:25;99589.06;;;10.13;100.00
22743;BME280;11538;48.884;8.696;2023-02-19T10:20:57;99593.69;;;10.12;100.00
22743;BME280;11538;48.884;8.696;2023-02-19T10:23:25;99604.22;;;10.19;100.00
22743;BME280;11538;48.884;8.696;2023-02-19T10:25:57;99592.81;;;10.22;100.00
22743;BME280;11538;48.884;8.696;2023-02-19T10:28:31;99592.84;;;10.17;100.00
22743;BME280;11538;48.884;8.696;2023-02-19T10:31:04;99600.97;;;10.17;100.00
22743;BME280;11538;48.884;8.696;2023-02-19T10:33:53;99606.69;;;10.20;100.00
22743;BME280;11538;48.884;8.696;2023-02-19T10:36:33;99610.69;;;10.28;100.00
22743;BME280;11538;48.884;8.696;2023-02-19T10:41:49;99622.88;;;10.36;100.00
22743;BME280;11538;48.884;8.696;2023-02-19T10:44:33;99627.50;;;10.41;100.00
22743;BME280;11538;48.884;8.696;2023-02-19T10:47:05;99638.59;;;10.39;100.00
22743;BME280;11538;48.884;8.696;2023-02-19T10:49:38;99636.72;;;10.34;100.00
22743;BME280;11538;48.884;8.696;2023-02-19T10:52:19;99637.25;;;10.31;100.00
22743;BME280;11538;48.884;8.696;2023-02-19T10:54:55;99642.69;;;10.31;100.00
22743;BME280;11538;48.884;8.696;2023-02-19T10:57:30;99645.16;;;10.22;100.00
22743;BME280;11538;48.884;8.696;2023-02-19T11:00:18;99632.41;;;10.23;100.00
22743;BME280;11538;48.884;8.696;2023-02-19T11:02:48;99641.38;;;10.18;100.00
22743;BME280;11538;48.884;8.696;2023-02-19T11:05:19;99631.34;;;10.19;100.00
22743;BME280;11538;48.884;8.696;2023-02-19T11:07:55;99610.47;;;10.19;100.00
22743;BME280;11538;48.884;8.696;2023-02-19T11:10:28;99621.00;;;10.26;100.00
22743;BME280;11538;48.884;8.696;2023-02-19T11:13:03;99630.19;;;10.35;100.00
22743;BME280;11538;48.884;8.696;2023-02-19T11:15:35;99626.38;;;10.47;100.00
22743;BME280;11538;48.884;8.696;2023-02-19T11:18:07;99624.19;;;10.49;100.00
22743;BME280;11538;48.884;8.696;2023-02-19T11:20:53;99631.75;;;10.62;99.39
22743;BME280;11538;48.884;8.696;2023-02-19T11:23:32;99632.50;;;10.73;99.28
22743;BME280;11538;48.884;8.696;2023-02-19T11:26:05;99632.50;;;10.73;98.10
22743;BME280;11538;48.884;8.696;2023-02-19T11:28:36;99620.56;;;10.74;97.84
22743;BME280;11538;48.884;8.696;2023-02-19T11:34:00;99616.13;;;10.89;95.55
22743;BME280;11538;48.884;8.696;2023-02-19T11:36:34;99626.16;;;10.93;95.59
22743;BME280;11538;48.884;8.696;2023-02-19T11:45:14;99633.72;;;10.96;95.92
22743;BME280;11538;48.884;8.696;2023-02-19T11:47:58;99620.16;;;10.96;95.23
22743;BME280;11538;48.884;8.696;2023-02-19T11:53:31;99642.72;;;10.92;94.40
22743;BME280;11538;48.884;8.696;2023-02-19T11:56:35;99648.94;;;10.97;94.34
22743;BME280;11538;48.884;8.696;2023-02-19T11:59:11;99654.63;;;10.96;94.25
22743;BME280;11538;48.884;8.696;2023-02-19T12:02:21;99652.97;;;11.00;93.98
22743;BME280;11538;48.884;8.696;2023-02-19T12:05:22;99639.88;;;11.07;93.58
22743;BME280;11538;48.884;8.696;2023-02-19T12:26:26;99607.88;;;11.98;84.72
22743;BME280;11538;48.884;8.696;2023-02-19T12:38:04;99610.66;;;13.70;75.37
22743;BME280;11538;48.884;8.696;2023-02-19T12:40:53;99609.69;;;14.08;71.81
22743;BME280;11538;48.884;8.696;2023-02-19T12:43:24;99614.84;;;14.10;72.12
22743;BME280;11538;48.884;8.696;2023-02-19T12:45:55;99613.44;;;13.51;72.75
22743;BME280;11538;48.884;8.696;2023-02-19T12:48:34;99606.63;;;13.15;75.00
22743;BME280;11538;48.884;8.696;2023-02-19T12:51:21;99605.09;;;12.90;77.22
22743;BME280;11538;48.884;8.696;2023-02-19T12:53:59;99603.69;;;12.54;77.86
22743;BME280;11538;48.884;8.696;2023-02-19T12:59:25;99605.81;;;12.14;81.24
22743;BME280;11538;48.884;8.696;2023-02-19T13:05:14;99601.75;;;11.87;80.10
22743;BME280;11538;48.884;8.696;2023-02-19T13:07:57;99610.66;;;11.93;81.43
22743;BME280;11538;48.884;8.696;2023-02-19T13:10:50;99604.66;;;11.96;79.78
22743;BME280;11538;48.884;8.696;2023-02-19T13:14:02;99609.69;;;11.78;79.13
22743;BME280;11538;48.884;8.696;2023-02-19T13:16:30;99607.38;;;11.66;78.99
22743;BME280;11538;48.884;8.696;2023-02-19T13:19:03;99602.16;;;11.70;78.56
22743;BME280;11538;48.884;8.696;2023-02-19T13:21:33;99596.06;;;11.83;78.28
22743;BME280;11538;48.884;8.696;2023-02-19T13:24:38;99606.84;;;11.94;77.73
22743;BME280;11538;48.884;8.696;2023-02-19T13:30:39;99612.94;;;11.80;78.02
22743;BME280;11538;48.884;8.696;2023-02-19T13:36:20;99619.81;;;11.73;78.67
22743;BME280;11538;48.884;8.696;2023-02-19T13:38:50;99614.75;;;11.61;79.54
22743;BME280;11538;48.884;8.696;2023-02-19T13:44:02;99604.94;;;11.65;79.17
22743;BME280;11538;48.884;8.696;2023-02-19T13:46:43;99604.13;;;11.64;79.30
22743;BME280;11538;48.884;8.696;2023-02-19T13:52:00;99582.59;;;11.97;78.27
22743;BME280;11538;48.884;8.696;2023-02-19T13:54:34;99595.50;;;12.35;75.71
22743;BME280;11538;48.884;8.696;2023-02-19T13:59:50;99594.53;;;12.26;73.03
22743;BME280;11538;48.884;8.696;2023-02-19T14:05:02;99586.31;;;12.07;73.73
22743;BME280;11538;48.884;8.696;2023-02-19T14:08:02;99587.22;;;12.02;74.86
22743;BME280;11538;48.884;8.696;2023-02-19T14:10:49;99588.59;;;11.94;74.84
22743;BME280;11538;48.884;8.696;2023-02-19T14:16:28;99594.84;;;12.00;76.13
22743;BME280;11538;48.884;8.696;2023-02-19T14:18:55;99593.47;;;11.97;76.08
22743;BME280;11538;48.884;8.696;2023-02-19T14:21:34;99592.75;;;11.87;77.96
22743;BME280;11538;48.884;8.696;2023-02-19T14:24:03;99603.78;;;11.71;78.26
22743;BME280;11538;48.884;8.696;2023-02-19T14:26:32;99597.84;;;11.69;78.52
22743;BME280;11538;48.884;8.696;2023-02-19T14:29:01;99595.13;;;11.69;79.61
22743;BME280;11538;48.884;8.696;2023-02-19T14:31:38;99602.94;;;11.76;79.48
22743;BME280;11538;48.884;8.696;2023-02-19T14:34:18;99600.53;;;11.69;80.09
22743;BME280;11538;48.884;8.696;2023-02-19T14:36:52;99614.53;;;11.57;81.31
22743;BME280;11538;48.884;8.696;2023-02-19T14:39:28;99625.28;;;11.38;81.24
22743;BME280;11538;48.884;8.696;2023-02-19T14:42:01;99617.69;;;11.35;81.45
22743;BME280;11538;48.884;8.696;2023-02-19T14:44:49;99631.25;;;11.40;81.83
22743;BME280;11538;48.884;8.696;2023-02-19T14:47:20;99633.19;;;11.34;81.84
22743;BME280;11538;48.884;8.696;2023-02-19T14:49:59;99629.69;;;11.29;82.02
22743;BME280;11538;48.884;8.696;2023-02-19T14:52:37;99639.69;;;11.38;82.32
22743;BME280;11538;48.884;8.696;2023-02-19T14:55:32;99627.78;;;11.34;82.07
22743;BME280;11538;48.884;8.696;2023-02-19T14:58:06;99635.69;;;11.25;82.54
22743;BME280;11538;48.884;8.696;2023-02-19T15:00:40;99641.97;;;11.21;83.08
22743;BME280;11538;48.884;8.696;2023-02-19T15:03:37;99645.03;;;11.14;83.01
22743;BME280;11538;48.884;8.696;2023-02-19T15:06:12;99653.41;;;11.18;83.50